Grand Forks AFB, ND (58204)

2:04 PM CDT on May 28, 2017 (GMT -0500)
UND Oakville Prairie | | Change Station

Elev 873 ft 47.89 °N, 97.32 °W | Updated 2 minutes ago

Rain
Rain
55.1 °F
Feels Like 55.1 °F
N
13.5
Wind Variable Wind from NW
Gusts 24.8 mph

Today
High -- | Low -- °F
--% Chance of Precip.
Yesterday
High -- | Low -- °F
Precip. -- in
Pressure 29.76 in
Visibility 7.0 miles
Clouds Few 3600 ft
Scattered Clouds 4800 ft
Mostly Cloudy 6000 ft
Dew Point 49 °F
Humidity 78%
Rainfall Not available.
Snow Depth Not available.
5:37 AM 9:17 PM
Waxing Crescent, 13% visible
METAR KRDR 281856Z AUTO 34018G27KT 7SM RA FEW036 SCT048 BKN060 14/09 A2974 RMK AO2 PK WND 34030/21 LTG DSNT SE DZB24E33RAB49 SLP078 P0006 T01360090 $
Pressure 29.76 in
Visibility 7.0 miles
Clouds Few 3600 ft
Scattered Clouds 4800 ft
Mostly Cloudy 6000 ft
Dew Point 49 °F
Humidity 78%
Rainfall Not available.
Snow Depth Not available.
5:37 AM 9:17 PM
Waxing Crescent, 13% visible
METAR KRDR 281856Z AUTO 34018G27KT 7SM RA FEW036 SCT048 BKN060 14/09 A2974 RMK AO2 PK WND 34030/21 LTG DSNT SE DZB24E33RAB49 SLP078 P0006 T01360090 $

Get Severe Weather Alerts

Thanks for signing up!

Be on the lookout for a verification email in your inbox.

You'll start receiving the daily forecast at 6 AM.

×

10-Day Weather Forecast

Almanac

Astronomy

May. 28, 2017 Rise Set
Actual Time
Civil Twilight
Nautical Twilight
Astronomical Twilight
Moon
Length of Visible Light
Length of Day
Tomorrow will be .
, % of the Moon is Illuminated

Today's Extremes

State Highs State Lows

Community

WunderPhotos

Category 6

Welcome to Category 6. This is the collective home for Weather Underground's featured writeups by Dr. Jeff Masters (right), Bob Henson (left), Chris Burt, and other regular contributors.

Nearby

Air Quality

  Air Quality AQ Index Pollutant
Not available.

Snow Depth

Station Depth Elevation

Earthquake Activity

City Distance Mag. Time & Date
Minimum magnitude displayed is 2.5.

Coastal Water Temperatures

Place Temperature

Stations

Nearby Weather Stations

Station Location Temp. Windchill Dew Point Humidity Wind Precip. Elev Updated Type
                   

Watches & Warnings

There are currently no watches in effect.